sensor_id;sensor_type;location;lat;lon;timestamp;P1;durP1;ratioP1;P2;durP2;ratioP2
75246;SDS011;63844;50.042;19.224;2023-05-07T00:00:54;12.50;;;7.80;;
75246;SDS011;63844;50.042;19.224;2023-05-07T00:03:21;14.60;;;9.50;;
75246;SDS011;63844;50.042;19.224;2023-05-07T00:05:48;14.20;;;8.60;;
75246;SDS011;63844;50.042;19.224;2023-05-07T00:10:41;12.60;;;8.10;;
75246;SDS011;63844;50.042;19.224;2023-05-07T00:13:07;14.40;;;8.80;;
75246;SDS011;63844;50.042;19.224;2023-05-07T00:15:34;12.00;;;6.60;;
75246;SDS011;63844;50.042;19.224;2023-05-07T00:20:27;16.00;;;8.50;;
75246;SDS011;63844;50.042;19.224;2023-05-07T00:22:53;13.30;;;8.60;;
75246;SDS011;63844;50.042;19.224;2023-05-07T00:27:47;15.60;;;9.50;;
75246;SDS011;63844;50.042;19.224;2023-05-07T00:30:13;18.60;;;10.50;;
75246;SDS011;63844;50.042;19.224;2023-05-07T00:32:40;15.30;;;9.70;;
75246;SDS011;63844;50.042;19.224;2023-05-07T00:37:33;17.50;;;10.50;;
75246;SDS011;63844;50.042;19.224;2023-05-07T00:40:00;17.30;;;9.60;;
75246;SDS011;63844;50.042;19.224;2023-05-07T00:42:26;16.00;;;10.30;;
75246;SDS011;63844;50.042;19.224;2023-05-07T00:44:54;14.90;;;9.00;;
75246;SDS011;63844;50.042;19.224;2023-05-07T00:47:21;16.10;;;10.50;;
75246;SDS011;63844;50.042;19.224;2023-05-07T00:49:48;17.40;;;10.20;;
75246;SDS011;63844;50.042;19.224;2023-05-07T00:52:15;16.60;;;10.10;;
75246;SDS011;63844;50.042;19.224;2023-05-07T00:54:43;17.10;;;9.80;;
75246;SDS011;63844;50.042;19.224;2023-05-07T00:57:10;18.20;;;10.50;;
75246;SDS011;63844;50.042;19.224;2023-05-07T00:59:37;16.70;;;11.00;;
75246;SDS011;63844;50.042;19.224;2023-05-07T01:02:06;18.80;;;9.60;;
75246;SDS011;63844;50.042;19.224;2023-05-07T01:04:33;21.90;;;12.30;;
75246;SDS011;63844;50.042;19.224;2023-05-07T01:06:59;19.40;;;11.80;;
75246;SDS011;63844;50.042;19.224;2023-05-07T01:09:27;18.10;;;10.70;;
75246;SDS011;63844;50.042;19.224;2023-05-07T01:11:55;13.40;;;8.20;;
75246;SDS011;63844;50.042;19.224;2023-05-07T01:14:23;23.50;;;12.20;;
75246;SDS011;63844;50.042;19.224;2023-05-07T01:16:50;22.10;;;13.00;;
75246;SDS011;63844;50.042;19.224;2023-05-07T01:19:17;13.90;;;8.40;;
75246;SDS011;63844;50.042;19.224;2023-05-07T01:21:46;20.50;;;11.20;;
75246;SDS011;63844;50.042;19.224;2023-05-07T01:24:13;17.90;;;10.90;;
75246;SDS011;63844;50.042;19.224;2023-05-07T01:26:41;19.60;;;11.30;;
75246;SDS011;63844;50.042;19.224;2023-05-07T01:29:09;15.70;;;9.00;;
75246;SDS011;63844;50.042;19.224;2023-05-07T01:31:36;19.20;;;10.90;;
75246;SDS011;63844;50.042;19.224;2023-05-07T01:34:03;20.20;;;11.40;;
75246;SDS011;63844;50.042;19.224;2023-05-07T01:36:33;19.10;;;11.60;;
75246;SDS011;63844;50.042;19.224;2023-05-07T01:39:00;18.60;;;11.90;;
75246;SDS011;63844;50.042;19.224;2023-05-07T01:41:28;17.90;;;10.40;;
75246;SDS011;63844;50.042;19.224;2023-05-07T01:43:56;21.40;;;11.50;;
75246;SDS011;63844;50.042;19.224;2023-05-07T01:46:24;18.90;;;10.70;;
75246;SDS011;63844;50.042;19.224;2023-05-07T01:48:52;17.60;;;10.60;;
75246;SDS011;63844;50.042;19.224;2023-05-07T01:51:19;18.10;;;10.30;;
75246;SDS011;63844;50.042;19.224;2023-05-07T01:53:46;16.90;;;9.60;;
75246;SDS011;63844;50.042;19.224;2023-05-07T01:56:17;15.80;;;8.90;;
75246;SDS011;63844;50.042;19.224;2023-05-07T01:58:44;15.30;;;7.90;;
75246;SDS011;63844;50.042;19.224;2023-05-07T02:01:13;11.10;;;7.00;;
75246;SDS011;63844;50.042;19.224;2023-05-07T02:03:40;14.30;;;8.60;;
75246;SDS011;63844;50.042;19.224;2023-05-07T02:06:07;14.00;;;7.50;;
75246;SDS011;63844;50.042;19.224;2023-05-07T02:08:33;17.90;;;9.50;;
75246;SDS011;63844;50.042;19.224;2023-05-07T02:11:00;17.40;;;8.70;;
75246;SDS011;63844;50.042;19.224;2023-05-07T02:13:28;16.10;;;8.90;;
75246;SDS011;63844;50.042;19.224;2023-05-07T02:15:55;14.70;;;8.80;;
75246;SDS011;63844;50.042;19.224;2023-05-07T02:20:48;11.70;;;6.70;;
75246;SDS011;63844;50.042;19.224;2023-05-07T02:23:15;14.50;;;7.30;;
75246;SDS011;63844;50.042;19.224;2023-05-07T02:25:41;14.40;;;8.20;;
75246;SDS011;63844;50.042;19.224;2023-05-07T02:28:07;17.00;;;8.80;;
75246;SDS011;63844;50.042;19.224;2023-05-07T02:30:34;13.40;;;7.10;;
75246;SDS011;63844;50.042;19.224;2023-05-07T02:33:01;15.50;;;7.60;;
75246;SDS011;63844;50.042;19.224;2023-05-07T02:35:27;17.80;;;8.30;;
75246;SDS011;63844;50.042;19.224;2023-05-07T02:37:54;16.00;;;8.70;;
75246;SDS011;63844;50.042;19.224;2023-05-07T02:40:20;14.20;;;7.10;;
75246;SDS011;63844;50.042;19.224;2023-05-07T02:42:47;12.10;;;6.10;;
75246;SDS011;63844;50.042;19.224;2023-05-07T02:45:13;16.30;;;8.60;;
75246;SDS011;63844;50.042;19.224;2023-05-07T02:47:40;11.70;;;6.40;;
75246;SDS011;63844;50.042;19.224;2023-05-07T02:50:07;9.10;;;4.80;;
75246;SDS011;63844;50.042;19.224;2023-05-07T02:55:00;12.20;;;7.20;;
75246;SDS011;63844;50.042;19.224;2023-05-07T02:57:27;16.50;;;8.70;;
75246;SDS011;63844;50.042;19.224;2023-05-07T02:59:53;15.70;;;8.40;;
75246;SDS011;63844;50.042;19.224;2023-05-07T03:02:19;12.70;;;6.50;;
75246;SDS011;63844;50.042;19.224;2023-05-07T03:04:46;16.70;;;9.40;;
75246;SDS011;63844;50.042;19.224;2023-05-07T03:07:12;16.50;;;8.90;;
75246;SDS011;63844;50.042;19.224;2023-05-07T03:09:39;17.50;;;10.00;;
75246;SDS011;63844;50.042;19.224;2023-05-07T03:12:05;15.40;;;8.30;;
75246;SDS011;63844;50.042;19.224;2023-05-07T03:14:32;16.20;;;8.40;;
75246;SDS011;63844;50.042;19.224;2023-05-07T03:16:59;16.70;;;9.50;;
75246;SDS011;63844;50.042;19.224;2023-05-07T03:19:25;13.20;;;7.60;;
75246;SDS011;63844;50.042;19.224;2023-05-07T03:21:52;12.00;;;7.40;;
75246;SDS011;63844;50.042;19.224;2023-05-07T03:24:18;8.80;;;4.60;;
75246;SDS011;63844;50.042;19.224;2023-05-07T03:26:45;14.30;;;7.50;;
75246;SDS011;63844;50.042;19.224;2023-05-07T03:29:11;13.10;;;7.60;;
75246;SDS011;63844;50.042;19.224;2023-05-07T03:31:38;9.30;;;5.30;;
75246;SDS011;63844;50.042;19.224;2023-05-07T03:34:04;9.70;;;6.60;;
75246;SDS011;63844;50.042;19.224;2023-05-07T03:36:31;11.80;;;6.50;;
75246;SDS011;63844;50.042;19.224;2023-05-07T03:38:57;9.30;;;5.80;;
75246;SDS011;63844;50.042;19.224;2023-05-07T03:41:24;8.10;;;6.10;;
75246;SDS011;63844;50.042;19.224;2023-05-07T03:43:51;9.00;;;5.30;;
75246;SDS011;63844;50.042;19.224;2023-05-07T03:46:18;8.90;;;5.70;;
75246;SDS011;63844;50.042;19.224;2023-05-07T03:48:45;9.10;;;5.40;;
75246;SDS011;63844;50.042;19.224;2023-05-07T03:51:11;8.60;;;5.70;;
75246;SDS011;63844;50.042;19.224;2023-05-07T03:53:37;7.40;;;4.20;;
75246;SDS011;63844;50.042;19.224;2023-05-07T03:56:04;11.30;;;6.30;;
75246;SDS011;63844;50.042;19.224;2023-05-07T04:00:57;10.00;;;5.80;;
75246;SDS011;63844;50.042;19.224;2023-05-07T04:03:24;8.20;;;5.20;;
75246;SDS011;63844;50.042;19.224;2023-05-07T04:05:50;10.30;;;4.80;;
75246;SDS011;63844;50.042;19.224;2023-05-07T04:08:16;10.00;;;5.40;;
75246;SDS011;63844;50.042;19.224;2023-05-07T04:10:43;8.50;;;5.50;;
75246;SDS011;63844;50.042;19.224;2023-05-07T04:13:09;6.80;;;4.80;;
75246;SDS011;63844;50.042;19.224;2023-05-07T04:15:36;6.80;;;3.70;;
75246;SDS011;63844;50.042;19.224;2023-05-07T04:18:02;7.20;;;4.50;;
75246;SDS011;63844;50.042;19.224;2023-05-07T04:20:29;7.10;;;4.60;;
75246;SDS011;63844;50.042;19.224;2023-05-07T04:22:55;7.60;;;4.70;;
75246;SDS011;63844;50.042;19.224;2023-05-07T04:25:22;7.30;;;4.80;;
75246;SDS011;63844;50.042;19.224;2023-05-07T04:27:52;5.40;;;3.50;;
75246;SDS011;63844;50.042;19.224;2023-05-07T04:30:19;8.10;;;5.00;;
75246;SDS011;63844;50.042;19.224;2023-05-07T04:32:45;6.90;;;4.60;;
75246;SDS011;63844;50.042;19.224;2023-05-07T04:35:12;3.60;;;2.30;;
75246;SDS011;63844;50.042;19.224;2023-05-07T04:37:38;7.80;;;5.10;;
75246;SDS011;63844;50.042;19.224;2023-05-07T04:40:06;6.70;;;4.50;;
75246;SDS011;63844;50.042;19.224;2023-05-07T04:42:33;8.40;;;5.20;;
75246;SDS011;63844;50.042;19.224;2023-05-07T04:45:00;11.90;;;7.70;;
75246;SDS011;63844;50.042;19.224;2023-05-07T04:47:27;10.90;;;6.70;;
75246;SDS011;63844;50.042;19.224;2023-05-07T04:49:53;11.70;;;6.90;;
75246;SDS011;63844;50.042;19.224;2023-05-07T04:52:20;11.30;;;7.10;;
75246;SDS011;63844;50.042;19.224;2023-05-07T04:54:46;9.70;;;5.80;;
75246;SDS011;63844;50.042;19.224;2023-05-07T04:57:13;9.90;;;5.70;;
75246;SDS011;63844;50.042;19.224;2023-05-07T04:59:39;14.30;;;6.80;;
75246;SDS011;63844;50.042;19.224;2023-05-07T05:02:06;11.30;;;6.20;;
75246;SDS011;63844;50.042;19.224;2023-05-07T05:04:32;10.10;;;5.20;;
75246;SDS011;63844;50.042;19.224;2023-05-07T05:06:58;10.90;;;6.50;;
75246;SDS011;63844;50.042;19.224;2023-05-07T05:09:25;9.40;;;5.20;;
75246;SDS011;63844;50.042;19.224;2023-05-07T05:11:51;10.20;;;5.40;;
75246;SDS011;63844;50.042;19.224;2023-05-07T05:14:18;10.60;;;5.80;;
75246;SDS011;63844;50.042;19.224;2023-05-07T05:16:44;8.90;;;4.00;;
75246;SDS011;63844;50.042;19.224;2023-05-07T05:19:11;7.40;;;4.00;;
75246;SDS011;63844;50.042;19.224;2023-05-07T05:21:37;9.80;;;5.40;;
75246;SDS011;63844;50.042;19.224;2023-05-07T05:24:04;6.00;;;2.40;;
75246;SDS011;63844;50.042;19.224;2023-05-07T05:28:57;9.10;;;4.10;;
75246;SDS011;63844;50.042;19.224;2023-05-07T05:31:23;7.20;;;3.70;;
75246;SDS011;63844;50.042;19.224;2023-05-07T05:33:50;6.40;;;3.70;;
75246;SDS011;63844;50.042;19.224;2023-05-07T05:36:16;9.60;;;5.00;;
75246;SDS011;63844;50.042;19.224;2023-05-07T05:38:43;8.50;;;4.30;;
75246;SDS011;63844;50.042;19.224;2023-05-07T05:41:10;6.60;;;3.10;;
75246;SDS011;63844;50.042;19.224;2023-05-07T05:43:37;6.80;;;4.00;;
75246;SDS011;63844;50.042;19.224;2023-05-07T05:46:03;6.80;;;3.00;;
75246;SDS011;63844;50.042;19.224;2023-05-07T05:48:30;8.10;;;3.80;;
75246;SDS011;63844;50.042;19.224;2023-05-07T05:50:57;6.00;;;3.00;;
75246;SDS011;63844;50.042;19.224;2023-05-07T05:53:23;9.30;;;4.20;;
75246;SDS011;63844;50.042;19.224;2023-05-07T05:55:50;7.40;;;3.20;;
75246;SDS011;63844;50.042;19.224;2023-05-07T05:58:17;8.70;;;3.40;;
75246;SDS011;63844;50.042;19.224;2023-05-07T06:00:44;7.20;;;3.00;;
75246;SDS011;63844;50.042;19.224;2023-05-07T06:03:11;9.90;;;3.80;;
75246;SDS011;63844;50.042;19.224;2023-05-07T06:05:37;8.40;;;3.10;;
75246;SDS011;63844;50.042;19.224;2023-05-07T06:08:04;7.20;;;3.00;;
75246;SDS011;63844;50.042;19.224;2023-05-07T06:10:30;7.10;;;2.80;;
75246;SDS011;63844;50.042;19.224;2023-05-07T06:12:57;4.00;;;2.60;;
75246;SDS011;63844;50.042;19.224;2023-05-07T06:15:24;6.70;;;2.40;;
75246;SDS011;63844;50.042;19.224;2023-05-07T06:17:50;4.00;;;2.50;;
75246;SDS011;63844;50.042;19.224;2023-05-07T06:20:17;7.10;;;3.10;;
75246;SDS011;63844;50.042;19.224;2023-05-07T06:22:43;3.60;;;1.30;;
75246;SDS011;63844;50.042;19.224;2023-05-07T06:25:10;3.10;;;1.70;;
75246;SDS011;63844;50.042;19.224;2023-05-07T06:27:36;2.80;;;1.20;;
75246;SDS011;63844;50.042;19.224;2023-05-07T06:30:03;4.70;;;2.20;;
75246;SDS011;63844;50.042;19.224;2023-05-07T06:32:30;4.30;;;2.10;;
75246;SDS011;63844;50.042;19.224;2023-05-07T06:34:56;4.00;;;2.00;;
75246;SDS011;63844;50.042;19.224;2023-05-07T06:37:23;3.40;;;2.00;;
75246;SDS011;63844;50.042;19.224;2023-05-07T06:39:49;1.40;;;1.00;;
75246;SDS011;63844;50.042;19.224;2023-05-07T06:42:16;4.30;;;2.80;;
75246;SDS011;63844;50.042;19.224;2023-05-07T06:44:42;4.90;;;2.80;;
75246;SDS011;63844;50.042;19.224;2023-05-07T06:47:09;3.50;;;2.50;;
75246;SDS011;63844;50.042;19.224;2023-05-07T06:49:35;3.90;;;2.60;;
75246;SDS011;63844;50.042;19.224;2023-05-07T06:52:02;2.60;;;2.00;;
75246;SDS011;63844;50.042;19.224;2023-05-07T06:54:28;2.60;;;2.00;;
75246;SDS011;63844;50.042;19.224;2023-05-07T06:56:55;3.80;;;1.30;;
75246;SDS011;63844;50.042;19.224;2023-05-07T06:59:21;5.30;;;2.30;;
75246;SDS011;63844;50.042;19.224;2023-05-07T07:01:48;3.40;;;2.10;;
75246;SDS011;63844;50.042;19.224;2023-05-07T07:04:14;3.70;;;2.10;;
75246;SDS011;63844;50.042;19.224;2023-05-07T07:06:41;2.60;;;2.00;;
75246;SDS011;63844;50.042;19.224;2023-05-07T07:09:07;3.50;;;1.70;;
75246;SDS011;63844;50.042;19.224;2023-05-07T07:11:34;3.30;;;2.30;;
75246;SDS011;63844;50.042;19.224;2023-05-07T07:14:00;5.50;;;1.90;;
75246;SDS011;63844;50.042;19.224;2023-05-07T07:16:27;4.50;;;2.30;;
75246;SDS011;63844;50.042;19.224;2023-05-07T07:18:53;4.60;;;3.10;;
75246;SDS011;63844;50.042;19.224;2023-05-07T07:21:20;4.50;;;2.20;;
75246;SDS011;63844;50.042;19.224;2023-05-07T07:23:46;3.30;;;1.70;;
75246;SDS011;63844;50.042;19.224;2023-05-07T07:26:13;3.90;;;2.20;;
75246;SDS011;63844;50.042;19.224;2023-05-07T07:28:43;2.20;;;1.80;;
75246;SDS011;63844;50.042;19.224;2023-05-07T07:31:10;2.40;;;1.50;;
75246;SDS011;63844;50.042;19.224;2023-05-07T07:33:38;1.90;;;1.40;;
75246;SDS011;63844;50.042;19.224;2023-05-07T07:36:05;4.60;;;1.70;;
75246;SDS011;63844;50.042;19.224;2023-05-07T07:38:32;3.30;;;1.60;;
75246;SDS011;63844;50.042;19.224;2023-05-07T07:41:00;2.50;;;1.40;;
75246;SDS011;63844;50.042;19.224;2023-05-07T07:43:27;2.80;;;2.00;;
75246;SDS011;63844;50.042;19.224;2023-05-07T07:45:54;3.10;;;2.00;;
75246;SDS011;63844;50.042;19.224;2023-05-07T07:48:20;3.10;;;2.30;;
75246;SDS011;63844;50.042;19.224;2023-05-07T07:50:50;2.30;;;1.60;;
75246;SDS011;63844;50.042;19.224;2023-05-07T07:53:17;4.00;;;1.50;;
75246;SDS011;63844;50.042;19.224;2023-05-07T07:55:44;3.40;;;2.60;;
75246;SDS011;63844;50.042;19.224;2023-05-07T08:00:37;3.00;;;1.80;;
75246;SDS011;63844;50.042;19.224;2023-05-07T08:03:04;3.40;;;2.40;;
75246;SDS011;63844;50.042;19.224;2023-05-07T08:05:31;2.80;;;2.00;;
75246;SDS011;63844;50.042;19.224;2023-05-07T08:07:57;2.40;;;1.40;;
75246;SDS011;63844;50.042;19.224;2023-05-07T08:10:24;5.70;;;2.50;;
75246;SDS011;63844;50.042;19.224;2023-05-07T08:12:51;2.70;;;1.90;;
75246;SDS011;63844;50.042;19.224;2023-05-07T08:15:17;3.20;;;2.10;;
75246;SDS011;63844;50.042;19.224;2023-05-07T08:17:44;3.40;;;2.00;;
75246;SDS011;63844;50.042;19.224;2023-05-07T08:20:10;3.50;;;2.10;;
75246;SDS011;63844;50.042;19.224;2023-05-07T08:22:37;3.40;;;1.80;;
75246;SDS011;63844;50.042;19.224;2023-05-07T08:25:03;3.60;;;2.00;;
75246;SDS011;63844;50.042;19.224;2023-05-07T08:27:30;1.90;;;1.20;;
75246;SDS011;63844;50.042;19.224;2023-05-07T08:29:57;2.60;;;1.50;;
75246;SDS011;63844;50.042;19.224;2023-05-07T08:32:23;2.90;;;1.90;;
75246;SDS011;63844;50.042;19.224;2023-05-07T08:34:49;1.80;;;1.00;;
75246;SDS011;63844;50.042;19.224;2023-05-07T08:37:16;1.80;;;1.20;;
75246;SDS011;63844;50.042;19.224;2023-05-07T08:39:43;2.50;;;1.30;;
75246;SDS011;63844;50.042;19.224;2023-05-07T08:42:09;3.70;;;2.00;;
75246;SDS011;63844;50.042;19.224;2023-05-07T08:44:38;2.50;;;1.60;;
75246;SDS011;63844;50.042;19.224;2023-05-07T08:47:06;1.80;;;1.20;;
75246;SDS011;63844;50.042;19.224;2023-05-07T08:49:34;1.60;;;1.20;;
75246;SDS011;63844;50.042;19.224;2023-05-07T08:52:01;2.20;;;1.00;;
75246;SDS011;63844;50.042;19.224;2023-05-07T08:54:28;2.00;;;1.30;;
75246;SDS011;63844;50.042;19.224;2023-05-07T08:56:55;2.70;;;1.50;;
75246;SDS011;63844;50.042;19.224;2023-05-07T08:59:21;2.30;;;1.20;;
75246;SDS011;63844;50.042;19.224;2023-05-07T09:01:48;1.50;;;1.10;;
75246;SDS011;63844;50.042;19.224;2023-05-07T09:04:15;1.00;;;0.60;;
75246;SDS011;63844;50.042;19.224;2023-05-07T09:06:41;2.20;;;1.30;;
75246;SDS011;63844;50.042;19.224;2023-05-07T09:09:08;2.30;;;1.30;;
75246;SDS011;63844;50.042;19.224;2023-05-07T09:11:34;2.20;;;1.30;;
75246;SDS011;63844;50.042;19.224;2023-05-07T09:14:01;1.90;;;1.40;;
75246;SDS011;63844;50.042;19.224;2023-05-07T09:16:29;1.40;;;1.00;;
75246;SDS011;63844;50.042;19.224;2023-05-07T09:18:57;1.00;;;0.50;;
75246;SDS011;63844;50.042;19.224;2023-05-07T09:21:25;1.70;;;1.10;;
75246;SDS011;63844;50.042;19.224;2023-05-07T09:23:52;2.50;;;1.50;;
75246;SDS011;63844;50.042;19.224;2023-05-07T09:26:21;3.30;;;1.50;;
75246;SDS011;63844;50.042;19.224;2023-05-07T09:28:48;1.90;;;0.80;;
75246;SDS011;63844;50.042;19.224;2023-05-07T09:31:15;1.50;;;0.90;;
75246;SDS011;63844;50.042;19.224;2023-05-07T09:33:42;5.50;;;1.20;;
75246;SDS011;63844;50.042;19.224;2023-05-07T09:36:09;3.60;;;1.70;;
75246;SDS011;63844;50.042;19.224;2023-05-07T09:38:36;1.90;;;0.90;;
75246;SDS011;63844;50.042;19.224;2023-05-07T09:41:04;2.90;;;1.50;;
75246;SDS011;63844;50.042;19.224;2023-05-07T09:43:34;3.40;;;1.30;;
75246;SDS011;63844;50.042;19.224;2023-05-07T09:46:10;1.80;;;1.10;;
75246;SDS011;63844;50.042;19.224;2023-05-07T09:48:39;2.10;;;1.40;;
75246;SDS011;63844;50.042;19.224;2023-05-07T09:51:11;2.30;;;1.70;;
75246;SDS011;63844;50.042;19.224;2023-05-07T09:53:48;2.40;;;1.80;;
75246;SDS011;63844;50.042;19.224;2023-05-07T09:56:16;4.80;;;2.80;;
75246;SDS011;63844;50.042;19.224;2023-05-07T09:58:44;6.50;;;3.60;;
75246;SDS011;63844;50.042;19.224;2023-05-07T10:01:12;4.70;;;3.20;;
75246;SDS011;63844;50.042;19.224;2023-05-07T10:06:10;3.90;;;2.70;;
75246;SDS011;63844;50.042;19.224;2023-05-07T10:08:39;4.10;;;2.60;;
75246;SDS011;63844;50.042;19.224;2023-05-07T10:11:06;4.40;;;3.00;;
75246;SDS011;63844;50.042;19.224;2023-05-07T10:16:04;5.70;;;3.90;;
75246;SDS011;63844;50.042;19.224;2023-05-07T10:18:31;6.10;;;4.30;;
75246;SDS011;63844;50.042;19.224;2023-05-07T10:21:07;6.10;;;3.90;;
75246;SDS011;63844;50.042;19.224;2023-05-07T10:23:37;7.00;;;3.70;;
75246;SDS011;63844;50.042;19.224;2023-05-07T10:26:05;4.80;;;3.50;;
75246;SDS011;63844;50.042;19.224;2023-05-07T10:28:35;5.50;;;4.40;;
75246;SDS011;63844;50.042;19.224;2023-05-07T10:31:19;5.10;;;4.20;;
75246;SDS011;63844;50.042;19.224;2023-05-07T10:34:13;4.90;;;3.50;;
75246;SDS011;63844;50.042;19.224;2023-05-07T10:36:46;4.70;;;4.00;;
75246;SDS011;63844;50.042;19.224;2023-05-07T10:39:13;5.00;;;2.60;;
75246;SDS011;63844;50.042;19.224;2023-05-07T10:41:40;6.40;;;3.40;;
75246;SDS011;63844;50.042;19.224;2023-05-07T10:44:07;3.80;;;3.20;;
75246;SDS011;63844;50.042;19.224;2023-05-07T10:46:33;3.10;;;2.60;;
75246;SDS011;63844;50.042;19.224;2023-05-07T10:51:32;3.20;;;2.90;;
75246;SDS011;63844;50.042;19.224;2023-05-07T10:56:41;5.50;;;3.70;;
75246;SDS011;63844;50.042;19.224;2023-05-07T11:04:25;4.00;;;3.50;;
75246;SDS011;63844;50.042;19.224;2023-05-07T11:15:05;5.50;;;3.60;;
75246;SDS011;63844;50.042;19.224;2023-05-07T11:17:33;4.40;;;4.00;;
75246;SDS011;63844;50.042;19.224;2023-05-07T11:20:02;4.70;;;3.70;;
75246;SDS011;63844;50.042;19.224;2023-05-07T11:24:58;5.50;;;4.30;;
75246;SDS011;63844;50.042;19.224;2023-05-07T11:27:25;5.30;;;4.20;;
75246;SDS011;63844;50.042;19.224;2023-05-07T11:29:52;5.90;;;3.30;;
75246;SDS011;63844;50.042;19.224;2023-05-07T11:32:22;7.50;;;3.80;;
75246;SDS011;63844;50.042;19.224;2023-05-07T11:34:57;5.80;;;3.90;;
75246;SDS011;63844;50.042;19.224;2023-05-07T11:37:25;4.80;;;3.90;;
75246;SDS011;63844;50.042;19.224;2023-05-07T11:40:06;5.40;;;3.30;;
75246;SDS011;63844;50.042;19.224;2023-05-07T11:42:35;5.70;;;3.90;;
75246;SDS011;63844;50.042;19.224;2023-05-07T11:45:04;4.40;;;3.40;;
75246;SDS011;63844;50.042;19.224;2023-05-07T11:47:32;6.80;;;4.10;;
75246;SDS011;63844;50.042;19.224;2023-05-07T11:50:03;5.90;;;4.50;;
75246;SDS011;63844;50.042;19.224;2023-05-07T11:52:32;6.10;;;4.00;;
75246;SDS011;63844;50.042;19.224;2023-05-07T11:54:59;6.10;;;4.40;;
75246;SDS011;63844;50.042;19.224;2023-05-07T11:57:27;6.20;;;5.10;;
75246;SDS011;63844;50.042;19.224;2023-05-07T11:59:58;5.20;;;3.60;;
75246;SDS011;63844;50.042;19.224;2023-05-07T12:02:25;7.40;;;5.10;;
75246;SDS011;63844;50.042;19.224;2023-05-07T12:04:52;6.20;;;4.60;;
75246;SDS011;63844;50.042;19.224;2023-05-07T12:07:19;5.80;;;4.30;;
75246;SDS011;63844;50.042;19.224;2023-05-07T12:12:13;6.90;;;4.90;;
75246;SDS011;63844;50.042;19.224;2023-05-07T12:14:44;4.80;;;3.40;;
75246;SDS011;63844;50.042;19.224;2023-05-07T12:17:12;5.60;;;4.60;;
75246;SDS011;63844;50.042;19.224;2023-05-07T12:19:41;8.20;;;4.90;;
75246;SDS011;63844;50.042;19.224;2023-05-07T12:22:09;5.40;;;3.90;;
75246;SDS011;63844;50.042;19.224;2023-05-07T12:24:46;7.50;;;4.80;;
75246;SDS011;63844;50.042;19.224;2023-05-07T12:27:14;7.10;;;4.40;;
75246;SDS011;63844;50.042;19.224;2023-05-07T12:29:47;6.10;;;4.20;;
75246;SDS011;63844;50.042;19.224;2023-05-07T12:32:15;6.50;;;4.70;;
75246;SDS011;63844;50.042;19.224;2023-05-07T12:34:43;5.80;;;3.40;;
75246;SDS011;63844;50.042;19.224;2023-05-07T12:37:10;6.80;;;4.20;;
75246;SDS011;63844;50.042;19.224;2023-05-07T12:39:44;5.60;;;4.30;;
75246;SDS011;63844;50.042;19.224;2023-05-07T12:42:16;6.60;;;5.30;;
75246;SDS011;63844;50.042;19.224;2023-05-07T12:44:46;5.70;;;4.50;;
75246;SDS011;63844;50.042;19.224;2023-05-07T12:47:12;5.70;;;4.60;;
75246;SDS011;63844;50.042;19.224;2023-05-07T12:49:39;6.60;;;5.00;;
75246;SDS011;63844;50.042;19.224;2023-05-07T12:52:07;7.20;;;4.90;;
75246;SDS011;63844;50.042;19.224;2023-05-07T12:54:35;6.90;;;4.80;;
75246;SDS011;63844;50.042;19.224;2023-05-07T12:57:07;4.40;;;3.40;;
75246;SDS011;63844;50.042;19.224;2023-05-07T12:59:36;5.40;;;4.40;;
75246;SDS011;63844;50.042;19.224;2023-05-07T13:02:04;5.40;;;4.00;;
75246;SDS011;63844;50.042;19.224;2023-05-07T13:04:31;4.40;;;3.10;;
75246;SDS011;63844;50.042;19.224;2023-05-07T13:06:58;4.60;;;3.40;;
75246;SDS011;63844;50.042;19.224;2023-05-07T13:09:25;6.10;;;4.40;;
75246;SDS011;63844;50.042;19.224;2023-05-07T13:11:52;4.80;;;3.90;;
75246;SDS011;63844;50.042;19.224;2023-05-07T13:14:18;4.70;;;3.70;;
75246;SDS011;63844;50.042;19.224;2023-05-07T13:16:47;6.40;;;2.60;;
75246;SDS011;63844;50.042;19.224;2023-05-07T13:19:14;5.00;;;3.70;;
75246;SDS011;63844;50.042;19.224;2023-05-07T13:21:40;5.80;;;4.10;;
75246;SDS011;63844;50.042;19.224;2023-05-07T13:26:34;4.10;;;3.00;;
75246;SDS011;63844;50.042;19.224;2023-05-07T13:29:01;5.10;;;4.30;;
75246;SDS011;63844;50.042;19.224;2023-05-07T13:31:27;4.90;;;3.60;;
75246;SDS011;63844;50.042;19.224;2023-05-07T13:33:54;6.20;;;4.80;;
75246;SDS011;63844;50.042;19.224;2023-05-07T13:36:22;4.80;;;3.10;;
75246;SDS011;63844;50.042;19.224;2023-05-07T13:38:49;5.50;;;4.00;;
75246;SDS011;63844;50.042;19.224;2023-05-07T13:41:17;4.80;;;3.90;;
75246;SDS011;63844;50.042;19.224;2023-05-07T13:43:44;4.60;;;3.10;;
75246;SDS011;63844;50.042;19.224;2023-05-07T13:46:10;5.90;;;4.10;;
75246;SDS011;63844;50.042;19.224;2023-05-07T13:48:36;5.10;;;3.70;;
75246;SDS011;63844;50.042;19.224;2023-05-07T13:51:03;6.40;;;4.20;;
75246;SDS011;63844;50.042;19.224;2023-05-07T13:53:29;6.80;;;3.90;;
75246;SDS011;63844;50.042;19.224;2023-05-07T13:55:56;4.50;;;3.60;;
75246;SDS011;63844;50.042;19.224;2023-05-07T13:58:22;4.60;;;3.40;;
75246;SDS011;63844;50.042;19.224;2023-05-07T14:00:49;4.50;;;4.00;;
75246;SDS011;63844;50.042;19.224;2023-05-07T14:03:16;4.00;;;3.10;;
75246;SDS011;63844;50.042;19.224;2023-05-07T14:05:43;4.10;;;3.20;;
75246;SDS011;63844;50.042;19.224;2023-05-07T14:08:10;3.90;;;3.00;;
75246;SDS011;63844;50.042;19.224;2023-05-07T14:10:37;4.50;;;2.80;;
75246;SDS011;63844;50.042;19.224;2023-05-07T14:13:03;4.90;;;3.00;;
75246;SDS011;63844;50.042;19.224;2023-05-07T14:17:58;4.80;;;2.70;;
75246;SDS011;63844;50.042;19.224;2023-05-07T14:20:25;3.00;;;2.10;;
75246;SDS011;63844;50.042;19.224;2023-05-07T14:22:52;2.90;;;2.00;;
75246;SDS011;63844;50.042;19.224;2023-05-07T14:25:18;4.10;;;2.80;;
75246;SDS011;63844;50.042;19.224;2023-05-07T14:27:45;4.60;;;3.20;;
75246;SDS011;63844;50.042;19.224;2023-05-07T14:30:11;4.40;;;3.10;;
75246;SDS011;63844;50.042;19.224;2023-05-07T14:32:38;7.20;;;3.80;;
75246;SDS011;63844;50.042;19.224;2023-05-07T14:37:31;7.10;;;3.60;;
75246;SDS011;63844;50.042;19.224;2023-05-07T14:39:57;6.50;;;4.00;;
75246;SDS011;63844;50.042;19.224;2023-05-07T14:42:24;4.90;;;3.30;;
75246;SDS011;63844;50.042;19.224;2023-05-07T14:44:50;4.90;;;2.90;;
75246;SDS011;63844;50.042;19.224;2023-05-07T14:47:17;5.70;;;2.70;;
75246;SDS011;63844;50.042;19.224;2023-05-07T14:49:43;4.20;;;2.60;;
75246;SDS011;63844;50.042;19.224;2023-05-07T14:52:10;5.30;;;3.10;;
75246;SDS011;63844;50.042;19.224;2023-05-07T14:54:36;3.10;;;2.40;;
75246;SDS011;63844;50.042;19.224;2023-05-07T14:57:04;4.40;;;2.70;;
75246;SDS011;63844;50.042;19.224;2023-05-07T14:59:32;5.30;;;2.80;;
75246;SDS011;63844;50.042;19.224;2023-05-07T15:04:25;4.50;;;3.20;;
75246;SDS011;63844;50.042;19.224;2023-05-07T15:06:51;3.00;;;2.60;;
75246;SDS011;63844;50.042;19.224;2023-05-07T15:09:19;4.00;;;2.40;;
75246;SDS011;63844;50.042;19.224;2023-05-07T15:11:46;3.80;;;2.40;;
75246;SDS011;63844;50.042;19.224;2023-05-07T15:14:12;4.40;;;3.10;;
75246;SDS011;63844;50.042;19.224;2023-05-07T15:16:39;5.70;;;4.00;;
75246;SDS011;63844;50.042;19.224;2023-05-07T15:19:05;5.50;;;4.10;;
75246;SDS011;63844;50.042;19.224;2023-05-07T15:21:32;5.30;;;3.70;;
75246;SDS011;63844;50.042;19.224;2023-05-07T15:24:00;3.50;;;2.80;;
75246;SDS011;63844;50.042;19.224;2023-05-07T15:26:28;3.70;;;2.30;;
75246;SDS011;63844;50.042;19.224;2023-05-07T15:28:55;2.70;;;2.20;;
75246;SDS011;63844;50.042;19.224;2023-05-07T15:31:24;4.90;;;3.40;;